الصفحة الرئيسية
METAR-TAF:

METAR-TAF

مطار :

Taos Regional Airport

Taos, نيومكسيكو, الولايات المتحدة

دائرة عرض: 36-27N, خط طول: 105-40W, ارتفاع: 2161 متر

مراقبة الطقس الحالي

تاريخ ووقت الإصدار 1ساعة و 5 دقيقة قبل الساعة 19:56UTC
ريح 5 عقدة من الجنوب
درجة الحرارة 3°درجة مئوية
الرطوبة 81%
ضغط 1026 hPa
الرؤية: 16.1 كم
ملبد بالغيوم على ارتفاع 1200 قدم

METAR: KSKX 151956Z AUTO 18005KT 10SM OVC012 03/00 A3030 RMK AO2 SLP267 T00280000 $

زمن: 15:01 (21:01 UTC)


TAF: مفقودة

أرصاد الطقس والتوقعات من أكثر من 4000 مطار (تقارير الطقس للمطار METAR والتنبؤ بالطقس بالمطارTAF).

المحطات المتاحة هي النقط الصفراء والحمراء على الخريطة.

حرك المؤشر فوق النقطة لمعرفة اسم المحطة.

ثم انقر لمعرفة أرصاد وتوقعات الطقس.

لتغيير الخارطة: اضغط على الأزرار الخضراء مع رمز الصليب الأسود للتكبير. على الزر الأخضر مع شرطة للتصغير، أو على الأسهم الخضراء للخرائط المجاورة.


METAR-TAF: